Time;durP1;ratioP1;P1;durP2;ratioP2;P2;SDS_P1;SDS_P2;PMS_P1;PMS_P2;Temp;Humidity;BMP_temperature;BMP_pressure;BME280_temperature;BME280_humidity;BME280_pressure;Samples;Min_cycle;Max_cycle;Signal;HPM_P1;HPM_P2
2021/08/09 00:01:03;;;;;;;1.6;1.1;;;;;;;14.61;96.0498;941.6284;;;;
2021/08/09 00:03:28;;;;;;;1.6;1.2;;;;;;;14.67;95.65137;941.6544;;;;
2021/08/09 00:05:54;;;;;;;1.1;1;;;;;;;14.78;95.47656;941.6655;;;;
2021/08/09 00:08:20;;;;;;;1.2;1.1;;;;;;;14.84;95.14453;941.6736;;;;
2021/08/09 00:10:45;;;;;;;1.8;1.3;;;;;;;14.88;94.88965;941.6078;;;;
2021/08/09 00:13:10;;;;;;;1.2;1;;;;;;;14.96;94.31836;941.6221;;;;
2021/08/09 00:15:39;;;;;;;1.1;1;;;;;;;14.79;94.47559;941.5613;;;;
2021/08/09 00:18:05;;;;;;;1.4;0.9;;;;;;;14.7;95.11328;941.5653;;;;
2021/08/09 00:20:31;;;;;;;1;1;;;;;;;14.58;95.69824;941.5139;;;;
2021/08/09 00:22:58;;;;;;;0.9;0.8;;;;;;;14.69;95.44531;941.4403;;;;
2021/08/09 00:25:50;;;;;;;0.8;0.8;;;;;;;14.76;95.11523;941.4153;;;;
2021/08/09 00:28:19;;;;;;;0.8;0.8;;;;;;;14.75;95.12695;941.4619;;;;
2021/08/09 00:30:44;;;;;;;3.2;1.1;;;;;;;14.74;95.14453;941.4916;;;;
2021/08/09 00:33:11;;;;;;;1;0.9;;;;;;;14.72;95.44043;941.3721;;;;
2021/08/09 00:35:37;;;;;;;1.8;1.1;;;;;;;14.63;96.14648;941.3474;;;;
2021/08/09 00:38:02;;;;;;;1.3;1.2;;;;;;;14.56;96.4668;941.2446;;;;
2021/08/09 00:40:27;;;;;;;2.3;1.2;;;;;;;14.55;95.92285;941.356;;;;
2021/08/09 00:43:05;;;;;;;1;1;;;;;;;14.64;95.55078;941.353;;;;
2021/08/09 00:45:31;;;;;;;1.7;0.9;;;;;;;14.75;94.65234;941.3215;;;;
2021/08/09 00:47:58;;;;;;;0.8;0.8;;;;;;;14.8;93.99316;941.2902;;;;
2021/08/09 00:50:23;;;;;;;1.6;1;;;;;;;14.87;92.90332;941.3441;;;;
2021/08/09 00:52:50;;;;;;;1.8;0.9;;;;;;;14.84;93.12695;941.2864;;;;
2021/08/09 00:55:15;;;;;;;1;0.9;;;;;;;14.82;92.85742;941.2464;;;;
2021/08/09 00:57:44;;;;;;;1;1;;;;;;;14.64;94.03906;941.224;;;;
2021/08/09 01:02:36;;;;;;;1;0.9;;;;;;;14.71;94.25293;941.2263;;;;
2021/08/09 01:05:01;;;;;;;1.1;1;;;;;;;14.7;94.41016;941.195;;;;
2021/08/09 01:07:28;;;;;;;1.4;1;;;;;;;14.65;94.81543;941.2408;;;;
2021/08/09 01:09:53;;;;;;;1.4;1;;;;;;;14.66;94.8291;941.2191;;;;
2021/08/09 01:12:18;;;;;;;1.9;1.1;;;;;;;14.53;95.13574;941.1621;;;;
2021/08/09 01:14:53;;;;;;;1.9;1.1;;;;;;;14.62;95.08398;941.1206;;;;
2021/08/09 01:17:20;;;;;;;1.4;1.1;;;;;;;14.63;94.83398;941.1158;;;;
2021/08/09 01:19:45;;;;;;;2.4;1.2;;;;;;;14.48;95.63086;941.1229;;;;
2021/08/09 01:22:12;;;;;;;2.5;1.1;;;;;;;14.57;95.44531;941.0859;;;;
2021/08/09 01:24:37;;;;;;;3.1;1.4;;;;;;;14.67;94.9209;941.0828;;;;
2021/08/09 01:29:40;;;;;;;2.8;1.2;;;;;;;14.55;95.36816;941.1269;;;;
2021/08/09 01:32:05;;;;;;;1.8;1.4;;;;;;;14.57;95.16406;941.1108;;;;
2021/08/09 01:34:31;;;;;;;1.5;1.1;;;;;;;14.63;94.67285;941.062;;;;
2021/08/09 01:36:56;;;;;;;2.3;1.2;;;;;;;14.59;94.5957;941.0458;;;;
2021/08/09 01:39:24;;;;;;;3.7;1.2;;;;;;;14.53;94.93945;941.0106;;;;
2021/08/09 01:41:49;;;;;;;1.2;1.1;;;;;;;14.39;95.70313;940.9597;;;;
2021/08/09 01:44:14;;;;;;;1.4;1.1;;;;;;;14.3;95.87891;941.0367;;;;
2021/08/09 01:46:39;;;;;;;1.3;1.2;;;;;;;14.37;95.9043;941.0455;;;;
2021/08/09 01:49:05;;;;;;;1;1;;;;;;;14.45;95.3252;941.0516;;;;
2021/08/09 01:51:31;;;;;;;1.2;1.1;;;;;;;14.45;95.10645;941.0236;;;;
2021/08/09 01:53:58;;;;;;;2.2;1.1;;;;;;;14.45;94.94531;940.9931;;;;
2021/08/09 01:56:23;;;;;;;0.9;0.9;;;;;;;14.41;94.96973;941.0229;;;;
2021/08/09 01:58:48;;;;;;;1.8;1.1;;;;;;;14.3;94.91113;941.0159;;;;
2021/08/09 02:01:13;;;;;;;2;1;;;;;;;14.24;94.9209;940.963;;;;
2021/08/09 02:03:40;;;;;;;1.4;1;;;;;;;14.16;95.19336;940.9308;;;;
2021/08/09 02:06:33;;;;;;;1;0.9;;;;;;;14.11;95.24805;940.9444;;;;
2021/08/09 02:09:02;;;;;;;1.8;1.4;;;;;;;14.1;94.66113;940.9684;;;;
2021/08/09 02:11:27;;;;;;;1.1;1;;;;;;;14.18;94.0918;940.9724;;;;
2021/08/09 02:13:54;;;;;;;1.9;1.1;;;;;;;14.21;94.36035;941.014;;;;
2021/08/09 02:16:27;;;;;;;1.3;1.2;;;;;;;14.14;94.15234;941.0172;;;;
2021/08/09 02:18:52;;;;;;;1.2;1.1;;;;;;;14.16;94.37305;940.9988;;;;
2021/08/09 02:21:17;;;;;;;1.1;1;;;;;;;14.16;94.66309;940.9651;;;;
2021/08/09 02:23:42;;;;;;;2.1;1.2;;;;;;;14.15;94.62695;940.9331;;;;
2021/08/09 02:26:08;;;;;;;1.5;1.2;;;;;;;14.22;93.66211;940.9791;;;;
2021/08/09 02:28:33;;;;;;;1.2;1.1;;;;;;;14.12;93.59473;940.9252;;;;
2021/08/09 02:30:58;;;;;;;1.2;0.9;;;;;;;14.09;93.73828;940.9885;;;;
2021/08/09 02:33:24;;;;;;;1;0.9;;;;;;;14.02;93.6416;940.9867;;;;
2021/08/09 02:35:48;;;;;;;0.9;0.9;;;;;;;14.02;93.73438;940.9931;;;;
2021/08/09 02:38:13;;;;;;;2.1;1;;;;;;;14.08;93.34277;940.9828;;;;
2021/08/09 02:40:38;;;;;;;1.3;1;;;;;;;13.9;94.39941;941.0223;;;;
2021/08/09 02:43:03;;;;;;;1.2;1.1;;;;;;;13.7;96.11621;941.0667;;;;
2021/08/09 02:45:29;;;;;;;1.7;1.3;;;;;;;13.51;97.81055;941.1083;;;;
2021/08/09 02:47:54;;;;;;;2.1;1.4;;;;;;;13.55;98.29004;941.0988;;;;
2021/08/09 02:50:21;;;;;;;1.5;1.3;;;;;;;13.76;97.18848;941.114;;;;
2021/08/09 02:52:46;;;;;;;1.4;1.3;;;;;;;13.88;96.19043;941.1409;;;;
2021/08/09 02:55:12;;;;;;;1.4;1.3;;;;;;;13.92;95.57715;941.1305;;;;
2021/08/09 02:57:38;;;;;;;1.9;1.4;;;;;;;14.01;95.05566;941.1914;;;;
2021/08/09 03:00:03;;;;;;;1.7;1.3;;;;;;;13.9;95.44629;941.1682;;;;
2021/08/09 03:02:28;;;;;;;2.9;1.1;;;;;;;13.98;95.03613;941.1617;;;;
2021/08/09 03:04:53;;;;;;;1.3;1.1;;;;;;;13.99;94.70703;941.177;;;;
2021/08/09 03:07:18;;;;;;;1.3;1.2;;;;;;;13.95;94.74316;941.1809;;;;
2021/08/09 03:09:43;;;;;;;2;1.3;;;;;;;14.12;94.03223;941.1157;;;;
2021/08/09 03:12:08;;;;;;;1.9;1.2;;;;;;;14.03;94.04688;941.1172;;;;
2021/08/09 03:14:33;;;;;;;1.6;1.1;;;;;;;13.82;94.61133;941.1231;;;;
2021/08/09 03:16:58;;;;;;;1.1;1.1;;;;;;;13.59;94.72168;941.1133;;;;
2021/08/09 03:19:23;;;;;;;3.9;1.5;;;;;;;13.68;94.38672;941.1355;;;;
2021/08/09 03:21:51;;;;;;;2.2;1.1;;;;;;;13.75;93.31934;941.0859;;;;
2021/08/09 03:24:25;;;;;;;1;1;;;;;;;13.72;93.53223;941.0683;;;;
2021/08/09 03:26:51;;;;;;;1.4;1.2;;;;;;;13.65;94.60938;941.1169;;;;
2021/08/09 03:29:16;;;;;;;1.2;1;;;;;;;13.64;94.62988;941.073;;;;
2021/08/09 03:31:57;;;;;;;6.5;5.6;;;;;;;13.57;94.70605;941.1116;;;;
2021/08/09 03:34:25;;;;;;;4;1.9;;;;;;;13.46;95.08496;941.1594;;;;
2021/08/09 03:36:52;;;;;;;1.3;1.2;;;;;;;13.42;95.65039;941.1888;;;;
2021/08/09 03:39:15;;;;;;;1.1;1.1;;;;;;;13.5;95.55273;941.2347;;;;
2021/08/09 03:41:40;;;;;;;1.2;1.1;;;;;;;13.54;95.40137;941.2444;;;;
2021/08/09 03:44:06;;;;;;;7.6;6.9;;;;;;;13.59;94.30762;941.2637;;;;
2021/08/09 03:46:31;;;;;;;2.3;1.9;;;;;;;13.4;94.54297;941.3013;;;;
2021/08/09 03:48:57;;;;;;;1.9;1.3;;;;;;;13.33;94.74512;941.3538;;;;
2021/08/09 03:51:22;;;;;;;1.7;1.3;;;;;;;13.26;95.27148;941.2921;;;;
2021/08/09 03:53:48;;;;;;;1.8;1.5;;;;;;;13.18;95.70215;941.3041;;;;
2021/08/09 03:56:13;;;;;;;1.4;1.2;;;;;;;13.26;95.8457;941.2928;;;;
2021/08/09 03:58:40;;;;;;;1.3;1.2;;;;;;;13.3;95.2334;941.3177;;;;
2021/08/09 04:02:56;;;;;;;2.4;1.9;;;;;;;13.15;96.24512;941.3501;;;;
2021/08/09 04:05:21;;;;;;;2.5;1.4;;;;;;;13.26;95.69629;941.3303;;;;
2021/08/09 04:07:46;;;;;;;1.8;1.6;;;;;;;13.23;95.87402;941.3846;;;;
2021/08/09 04:10:14;;;;;;;2.4;2;;;;;;;13.25;95.76367;941.3752;;;;
2021/08/09 04:12:42;;;;;;;2;1.5;;;;;;;13.33;95.73535;941.3387;;;;
2021/08/09 04:15:08;;;;;;;2.9;1.6;;;;;;;13.45;95.06055;941.285;;;;
2021/08/09 04:17:44;;;;;;;2.1;1.4;;;;;;;13.57;94.5918;941.3181;;;;
2021/08/09 04:20:08;;;;;;;3.4;1.7;;;;;;;13.61;93.73926;941.3158;;;;
2021/08/09 04:22:35;;;;;;;1.3;1.2;;;;;;;13.58;93.89355;941.2886;;;;
2021/08/09 04:25:01;;;;;;;2.3;1.6;;;;;;;13.66;93.33594;941.3178;;;;
2021/08/09 04:27:25;;;;;;;2.5;1.5;;;;;;;13.57;93.24609;941.2805;;;;
2021/08/09 04:29:51;;;;;;;2.5;1.6;;;;;;;13.52;93.36133;941.298;;;;
2021/08/09 04:32:17;;;;;;;1.6;1.4;;;;;;;13.56;93.34766;941.2428;;;;
2021/08/09 04:34:47;;;;;;;1.8;1.3;;;;;;;13.61;92.89941;941.2534;;;;
2021/08/09 04:37:12;;;;;;;2.2;1.3;;;;;;;13.5;93.07129;941.2811;;;;
2021/08/09 04:39:39;;;;;;;2;1.4;;;;;;;13.31;94.20117;941.2378;;;;
2021/08/09 04:42:04;;;;;;;2.2;1.4;;;;;;;13.22;94.50488;941.2087;;;;
2021/08/09 04:44:30;;;;;;;1.6;1.3;;;;;;;13.15;95.08496;941.2797;;;;
2021/08/09 04:46:57;;;;;;;5.1;1.5;;;;;;;13.15;95.06445;941.1942;;;;
2021/08/09 04:49:22;;;;;;;1.4;1.3;;;;;;;13.04;96.33789;941.2873;;;;
2021/08/09 04:51:48;;;;;;;2;1.1;;;;;;;13.22;95.65234;941.3254;;;;
2021/08/09 04:54:13;;;;;;;2.4;1.2;;;;;;;13.09;95.40625;941.3378;;;;
2021/08/09 04:56:38;;;;;;;2;1.2;;;;;;;13.09;95.61328;941.2827;;;;
2021/08/09 04:59:04;;;;;;;2.7;1.6;;;;;;;13.02;95.65625;941.3336;;;;
2021/08/09 05:01:29;;;;;;;1.4;1.3;;;;;;;13;95.94922;941.3683;;;;
2021/08/09 05:03:55;;;;;;;1.4;1.3;;;;;;;12.81;96.83691;941.2775;;;;
2021/08/09 05:06:21;;;;;;;1.8;1.4;;;;;;;12.92;96.82617;941.3391;;;;
2021/08/09 05:08:47;;;;;;;1.4;1.3;;;;;;;12.9;96.67383;941.3686;;;;
2021/08/09 05:11:12;;;;;;;2.8;1.2;;;;;;;13.05;96.37402;941.4136;;;;
2021/08/09 05:13:50;;;;;;;1.7;1.4;;;;;;;12.99;95.96777;941.329;;;;
2021/08/09 05:16:23;;;;;;;1.2;1.1;;;;;;;13.13;95.64551;941.4148;;;;
2021/08/09 05:18:52;;;;;;;1.4;1.3;;;;;;;13.2;94.93555;941.5017;;;;
2021/08/09 05:21:16;;;;;;;1.1;1;;;;;;;13.16;94.86914;941.4789;;;;
2021/08/09 05:23:59;;;;;;;1.3;1.1;;;;;;;13.25;94.93652;941.4903;;;;
2021/08/09 05:26:27;;;;;;;2.9;1.2;;;;;;;13.36;94.13281;941.5235;;;;
2021/08/09 05:32:20;;;;;;;1.7;1.4;;;;;;;13.57;94.48828;941.5037;;;;
2021/08/09 05:34:46;;;;;;;1.1;1;;;;;;;15.08;88.20605;941.4818;;;;
2021/08/09 05:37:11;;;;;;;2.8;1.2;;;;;;;15.48;83.82715;941.5123;;;;
2021/08/09 05:39:36;;;;;;;1.8;0.9;;;;;;;16.83;79.03711;941.5701;;;;
2021/08/09 05:42:02;;;;;;;2.1;1;;;;;;;17.79;73.73047;941.5254;;;;
2021/08/09 05:44:28;;;;;;;0.9;0.7;;;;;;;18.39;69.33105;941.5097;;;;
2021/08/09 05:46:53;;;;;;;1.3;0.8;;;;;;;18.86;68.88184;941.4799;;;;
2021/08/09 05:49:18;;;;;;;1.1;0.9;;;;;;;19.22;65.57227;941.4803;;;;
2021/08/09 05:51:43;;;;;;;2;1;;;;;;;20.48;62.67676;941.4576;;;;
2021/08/09 05:55:09;;;;;;;1.2;0.8;;;;;;;21.52;59.32129;941.3624;;;;
2021/08/09 05:57:37;;;;;;;1;0.7;;;;;;;20.85;61.00879;941.3585;;;;
2021/08/09 06:00:02;;;;;;;1.3;0.9;;;;;;;20.86;61.15039;941.3535;;;;
2021/08/09 06:02:27;;;;;;;1.8;0.8;;;;;;;20.39;62.14941;941.2974;;;;
2021/08/09 06:04:52;;;;;;;2.7;1.1;;;;;;;20.75;61.55664;941.1973;;;;
2021/08/09 06:07:20;;;;;;;1.3;1.1;;;;;;;21.33;59.82422;941.231;;;;
2021/08/09 06:09:45;;;;;;;3;1.8;;;;;;;21.58;58.94336;941.1314;;;;
2021/08/09 06:12:13;;;;;;;3;2;;;;;;;22.02;57.79492;941.1311;;;;
2021/08/09 06:14:38;;;;;;;1.6;1.5;;;;;;;22.72;55.0332;941.0911;;;;
2021/08/09 06:17:03;;;;;;;1.9;1.4;;;;;;;21.03;60.75293;941.062;;;;
2021/08/09 06:19:29;;;;;;;0.7;0.7;;;;;;;21.96;59.3584;941.0516;;;;
2021/08/09 06:21:54;;;;;;;1.7;1.3;;;;;;;22.48;55.10938;941.0402;;;;
2021/08/09 06:24:22;;;;;;;0.8;0.8;;;;;;;22.27;57.0293;941.0457;;;;
2021/08/09 06:26:47;;;;;;;0.6;0.6;;;;;;;22.36;54.85938;940.9877;;;;
2021/08/09 06:29:12;;;;;;;0.6;0.6;;;;;;;23.59;52.43652;941.0675;;;;
2021/08/09 06:31:37;;;;;;;1.9;0.5;;;;;;;23.65;52.37305;941.0174;;;;
2021/08/09 06:34:04;;;;;;;0.8;0.5;;;;;;;22.87;53.70117;941.0541;;;;
2021/08/09 06:36:29;;;;;;;1.1;0.5;;;;;;;23.03;54.22656;941.0117;;;;
2021/08/09 06:38:54;;;;;;;1.2;0.8;;;;;;;23.88;51.42285;941.015;;;;
2021/08/09 06:41:19;;;;;;;3.5;1.1;;;;;;;23.63;51.34766;940.9678;;;;
2021/08/09 06:43:46;;;;;;;0.9;0.7;;;;;;;22.77;53.25488;940.9644;;;;
2021/08/09 06:46:11;;;;;;;1;0.7;;;;;;;22.91;53.30762;940.9228;;;;
2021/08/09 06:48:36;;;;;;;0.5;0.5;;;;;;;24.57;51.06543;940.9436;;;;
2021/08/09 06:51:02;;;;;;;1.1;0.8;;;;;;;25.37;49.96484;940.9399;;;;
2021/08/09 06:53:27;;;;;;;0.6;0.6;;;;;;;24.1;51.26074;940.9621;;;;
2021/08/09 06:55:52;;;;;;;1.8;0.7;;;;;;;23.51;53.93164;940.9344;;;;
2021/08/09 06:58:18;;;;;;;1.3;0.7;;;;;;;25.07;49.28223;940.9576;;;;
2021/08/09 07:00:45;;;;;;;1.1;0.6;;;;;;;24.79;49.19238;940.9437;;;;
2021/08/09 07:03:11;;;;;;;2.4;0.6;;;;;;;23.23;54.40332;940.9897;;;;
2021/08/09 07:05:36;;;;;;;0.6;0.6;;;;;;;23.49;53.17676;941.0416;;;;
2021/08/09 07:08:01;;;;;;;0.7;0.6;;;;;;;22.98;56.2168;940.9895;;;;
2021/08/09 07:10:26;;;;;;;0.7;0.6;;;;;;;22.58;56.6123;940.9191;;;;
2021/08/09 07:12:52;;;;;;;0.7;0.7;;;;;;;24.88;50.80664;940.8728;;;;
2021/08/09 07:15:17;;;;;;;0.8;0.6;;;;;;;26.12;46.85449;940.8071;;;;
2021/08/09 07:17:42;;;;;;;0.6;0.5;;;;;;;26.12;46.52344;940.8088;;;;
2021/08/09 07:20:13;;;;;;;0.6;0.5;;;;;;;25.44;47.71582;940.7922;;;;
2021/08/09 07:22:36;;;;;;;1.8;0.9;;;;;;;26.29;46.8252;940.8011;;;;
2021/08/09 07:25:02;;;;;;;0.4;0.4;;;;;;;26.62;45.30762;940.7819;;;;
2021/08/09 07:27:27;;;;;;;0.7;0.5;;;;;;;26.91;42.50586;940.7531;;;;
2021/08/09 07:29:53;;;;;;;1.2;0.5;;;;;;;25.61;46.37695;940.6786;;;;
2021/08/09 07:32:19;;;;;;;1.5;0.6;;;;;;;28.35;41.7373;940.6778;;;;
2021/08/09 07:34:44;;;;;;;2.1;1;;;;;;;27.68;41.94922;940.6997;;;;
2021/08/09 07:37:11;;;;;;;0.6;0.6;;;;;;;27.19;42.9707;940.698;;;;
2021/08/09 07:39:38;;;;;;;0.5;0.5;;;;;;;29.81;37.25879;940.7008;;;;
2021/08/09 07:42:04;;;;;;;1.7;0.5;;;;;;;28.95;38.9248;940.8118;;;;
2021/08/09 07:44:28;;;;;;;0.3;0.3;;;;;;;29.13;36.88086;940.8365;;;;
2021/08/09 07:46:55;;;;;;;0.6;0.4;;;;;;;29.1;35.90137;940.7901;;;;
2021/08/09 07:49:20;;;;;;;0.8;0.6;;;;;;;29.21;36.5293;940.8455;;;;
2021/08/09 07:51:47;;;;;;;0.6;0.6;;;;;;;30.23;36.73145;940.7883;;;;
2021/08/09 07:54:12;;;;;;;0.5;0.5;;;;;;;32.22;32.38477;940.7776;;;;
2021/08/09 07:56:39;;;;;;;0.6;0.5;;;;;;;31.54;33.06641;940.7658;;;;
2021/08/09 07:59:04;;;;;;;1.2;0.6;;;;;;;31.59;33.86035;940.7195;;;;
2021/08/09 08:01:30;;;;;;;1.4;0.5;;;;;;;30.71;35.73047;940.693;;;;
2021/08/09 08:03:55;;;;;;;1;0.6;;;;;;;29.15;39.52637;940.7608;;;;
2021/08/09 08:06:22;;;;;;;0.7;0.6;;;;;;;29.3;37.41895;940.7366;;;;
2021/08/09 08:08:47;;;;;;;0.8;0.6;;;;;;;31.58;32.89063;940.6967;;;;
2021/08/09 08:11:15;;;;;;;1;0.8;;;;;;;29.82;38.30859;940.6707;;;;
2021/08/09 08:13:40;;;;;;;0.7;0.7;;;;;;;31.22;34.24023;940.639;;;;
2021/08/09 08:16:10;;;;;;;0.5;0.5;;;;;;;30.9;31.88379;940.6514;;;;
2021/08/09 08:18:35;;;;;;;0.7;0.6;;;;;;;29.06;36.33887;940.6507;;;;
2021/08/09 08:21:02;;;;;;;1.5;0.8;;;;;;;30.19;36.59766;940.6164;;;;
2021/08/09 08:23:29;;;;;;;0.7;0.7;;;;;;;31.78;32.96484;940.6144;;;;
2021/08/09 08:25:54;;;;;;;0.5;0.5;;;;;;;29.16;39.5625;940.5659;;;;
2021/08/09 08:28:19;;;;;;;0.3;0.3;;;;;;;29.17;38.46777;940.5751;;;;
2021/08/09 08:30:51;;;;;;;1;0.6;;;;;;;28.87;39.65527;940.5617;;;;
2021/08/09 08:33:14;;;;;;;0.7;0.6;;;;;;;29.71;38.90723;940.5359;;;;
2021/08/09 08:35:41;;;;;;;1.5;0.6;;;;;;;29.57;38.52539;940.5208;;;;
2021/08/09 08:38:07;;;;;;;0.7;0.7;;;;;;;28.89;36.73047;940.5854;;;;
2021/08/09 08:40:33;;;;;;;0.6;0.6;;;;;;;29.66;36.11328;940.4872;;;;
2021/08/09 08:42:58;;;;;;;0.5;0.5;;;;;;;28.37;39.67188;940.6128;;;;
2021/08/09 08:45:23;;;;;;;0.8;0.6;;;;;;;28.93;39.67285;940.6205;;;;
2021/08/09 08:47:49;;;;;;;0.8;0.5;;;;;;;28.61;39.68164;940.6367;;;;
2021/08/09 08:50:15;;;;;;;0.7;0.5;;;;;;;29.18;38.63574;940.593;;;;
2021/08/09 08:52:47;;;;;;;0.7;0.7;;;;;;;30.47;35.17383;940.6234;;;;
2021/08/09 08:55:09;;;;;;;0.6;0.6;;;;;;;27.11;41.5293;940.5672;;;;
2021/08/09 08:57:34;;;;;;;1.2;0.7;;;;;;;28.37;39.26758;940.5454;;;;
2021/08/09 08:59:59;;;;;;;0.9;0.5;;;;;;;28.37;41.63281;940.5529;;;;
2021/08/09 09:02:25;;;;;;;0.4;0.4;;;;;;;28.28;40.84082;940.5601;;;;
2021/08/09 09:04:50;;;;;;;1.6;0.5;;;;;;;26.78;41.52148;940.5358;;;;
2021/08/09 09:07:15;;;;;;;0.6;0.6;;;;;;;28.02;42.14648;940.5721;;;;
2021/08/09 09:09:41;;;;;;;0.6;0.5;;;;;;;28.59;41.83105;940.5539;;;;
2021/08/09 09:12:09;;;;;;;1.2;0.6;;;;;;;27.17;39.70801;940.543;;;;
2021/08/09 09:14:34;;;;;;;0.4;0.4;;;;;;;26.42;44.30664;940.5321;;;;
2021/08/09 09:17:01;;;;;;;0.6;0.6;;;;;;;27.28;41.81738;940.5105;;;;
2021/08/09 09:19:30;;;;;;;0.7;0.7;;;;;;;28.51;41.09961;940.5278;;;;
2021/08/09 09:21:55;;;;;;;1;0.5;;;;;;;28.76;40.20605;940.3925;;;;
2021/08/09 09:24:20;;;;;;;1.4;0.7;;;;;;;28.96;38.10449;940.4327;;;;
2021/08/09 09:26:45;;;;;;;0.4;0.4;;;;;;;28.74;37.20605;940.4412;;;;
2021/08/09 09:29:10;;;;;;;0.8;0.6;;;;;;;28.99;38.5957;940.4214;;;;
2021/08/09 09:31:35;;;;;;;0.6;0.5;;;;;;;27.81;37.6748;940.4286;;;;
2021/08/09 09:34:05;;;;;;;0.7;0.7;;;;;;;28.14;39.65039;940.4202;;;;
2021/08/09 09:36:26;;;;;;;0.9;0.5;;;;;;;28.78;39.11328;940.4274;;;;
2021/08/09 09:38:52;;;;;;;1.2;0.6;;;;;;;27.47;41.27734;940.4525;;;;
2021/08/09 09:41:17;;;;;;;0.7;0.7;;;;;;;26.76;44.89648;940.4866;;;;
2021/08/09 09:43:44;;;;;;;0.5;0.5;;;;;;;26.44;43.08789;940.4738;;;;
2021/08/09 09:46:09;;;;;;;0.9;0.7;;;;;;;25.08;43.83105;940.4724;;;;
2021/08/09 09:48:35;;;;;;;1.2;0.6;;;;;;;26.05;44.99121;940.488;;;;
2021/08/09 09:51:00;;;;;;;1.1;0.9;;;;;;;26.23;47.31543;940.5134;;;;
2021/08/09 09:53:30;;;;;;;1.8;0.8;;;;;;;26.1;45.75293;940.52;;;;
2021/08/09 09:55:58;;;;;;;0.6;0.6;;;;;;;26.8;46.23828;940.5364;;;;
2021/08/09 09:58:23;;;;;;;2.2;0.7;;;;;;;26.98;44.2666;940.4971;;;;
2021/08/09 10:00:49;;;;;;;0.8;0.6;;;;;;;26.73;44.24219;940.5184;;;;
2021/08/09 10:03:13;;;;;;;0.9;0.7;;;;;;;27.62;41.93262;940.5762;;;;
2021/08/09 10:05:41;;;;;;;0.7;0.7;;;;;;;27.79;41.08105;940.5646;;;;
2021/08/09 10:08:10;;;;;;;1.8;0.7;;;;;;;28.52;39.57715;940.5767;;;;
2021/08/09 10:10:35;;;;;;;0.7;0.7;;;;;;;28.14;41.24414;940.5558;;;;
2021/08/09 10:13:00;;;;;;;1;0.7;;;;;;;28.21;42.7002;940.5306;;;;
2021/08/09 10:15:29;;;;;;;0.5;0.5;;;;;;;28.66;40.14941;940.537;;;;
2021/08/09 10:17:56;;;;;;;1.8;0.9;;;;;;;27.46;47.45703;940.4346;;;;
2021/08/09 10:20:21;;;;;;;1;0.6;;;;;;;28.24;44.68652;940.4666;;;;
2021/08/09 10:22:48;;;;;;;1.9;1;;;;;;;28.26;41.94434;940.4445;;;;
2021/08/09 10:25:15;;;;;;;0.9;0.7;;;;;;;28.57;42.79297;940.4394;;;;
2021/08/09 10:27:40;;;;;;;0.8;0.8;;;;;;;28.13;44.97363;940.3533;;;;
2021/08/09 10:30:10;;;;;;;0.9;0.9;;;;;;;28.57;42.84082;940.4073;;;;
2021/08/09 10:32:38;;;;;;;2;0.8;;;;;;;28.87;40.97754;940.3558;;;;
2021/08/09 10:35:03;;;;;;;0.8;0.7;;;;;;;29.15;44.40918;940.3392;;;;
2021/08/09 10:37:33;;;;;;;0.7;0.7;;;;;;;29.04;42.46973;940.3967;;;;
2021/08/09 10:39:58;;;;;;;0.8;0.7;;;;;;;28.78;43.16992;940.3965;;;;
2021/08/09 10:42:25;;;;;;;0.9;0.6;;;;;;;29.08;42.11621;940.387;;;;
2021/08/09 10:44:50;;;;;;;1.3;0.9;;;;;;;27.72;47.2832;940.3975;;;;
2021/08/09 10:47:15;;;;;;;1.4;0.8;;;;;;;28.62;42.85742;940.3494;;;;
2021/08/09 10:49:40;;;;;;;1;0.9;;;;;;;28.95;43.62695;940.25;;;;
2021/08/09 10:52:05;;;;;;;1.1;0.8;;;;;;;29.8;41.74121;940.2994;;;;
2021/08/09 10:54:31;;;;;;;1.2;0.8;;;;;;;28.4;46.59473;940.3438;;;;
2021/08/09 10:56:56;;;;;;;0.8;0.8;;;;;;;27.8;44.77539;940.311;;;;
2021/08/09 10:59:21;;;;;;;0.8;0.8;;;;;;;28.63;43.08496;940.2828;;;;
2021/08/09 11:01:49;;;;;;;0.7;0.6;;;;;;;29.55;41.98047;940.2508;;;;
2021/08/09 11:04:14;;;;;;;1;0.9;;;;;;;29.44;42.57813;940.2347;;;;
2021/08/09 11:06:41;;;;;;;0.9;0.8;;;;;;;29.3;42.55371;940.2307;;;;
2021/08/09 11:09:06;;;;;;;1.2;0.9;;;;;;;30.2;40.34668;940.1717;;;;
2021/08/09 11:11:34;;;;;;;0.7;0.7;;;;;;;30.59;39.81934;940.1532;;;;
2021/08/09 11:13:59;;;;;;;3.1;0.9;;;;;;;29.59;40.26758;940.1133;;;;
2021/08/09 11:16:28;;;;;;;1.1;0.8;;;;;;;29.53;41.9668;940.173;;;;
2021/08/09 11:18:54;;;;;;;0.5;0.5;;;;;;;29.56;41.8623;940.1211;;;;
2021/08/09 11:21:20;;;;;;;0.9;0.7;;;;;;;29.65;41.2627;940.1266;;;;
2021/08/09 11:23:46;;;;;;;0.8;0.7;;;;;;;29.62;43.67969;940.1545;;;;
2021/08/09 11:26:10;;;;;;;1.1;0.9;;;;;;;29.7;42.41113;940.1819;;;;
2021/08/09 11:28:38;;;;;;;1.1;0.9;;;;;;;29.71;40.31445;940.1915;;;;
2021/08/09 11:31:04;;;;;;;1.2;0.9;;;;;;;30.93;38.00879;940.1713;;;;
2021/08/09 11:33:30;;;;;;;0.7;0.7;;;;;;;30.15;39.67285;940.1937;;;;
2021/08/09 11:35:55;;;;;;;2.2;0.8;;;;;;;29.95;41.37402;940.1903;;;;
2021/08/09 11:38:21;;;;;;;1.2;1.1;;;;;;;29.32;44.64063;940.1168;;;;
2021/08/09 11:40:46;;;;;;;0.8;0.8;;;;;;;29.49;41.39063;940.1633;;;;
2021/08/09 11:43:11;;;;;;;0.8;0.8;;;;;;;28.92;43.55273;940.1635;;;;
2021/08/09 11:45:37;;;;;;;0.8;0.8;;;;;;;28.11;42.84473;940.0518;;;;
2021/08/09 11:48:02;;;;;;;1;1;;;;;;;26.27;49.63965;940.1016;;;;
2021/08/09 11:50:27;;;;;;;0.9;0.9;;;;;;;26.66;47.83496;940.0723;;;;
2021/08/09 11:52:52;;;;;;;1.9;0.9;;;;;;;25.63;52.47559;940.0491;;;;
2021/08/09 11:55:17;;;;;;;0.9;0.9;;;;;;;24.76;55.31055;940.0972;;;;
2021/08/09 11:57:42;;;;;;;1.9;1.1;;;;;;;24.61;55.92773;940.1066;;;;
2021/08/09 12:00:11;;;;;;;2;1.1;;;;;;;24.17;57.73242;940.1499;;;;
2021/08/09 12:02:36;;;;;;;1.6;1;;;;;;;24.22;56.76172;940.0811;;;;
2021/08/09 12:05:01;;;;;;;1;0.9;;;;;;;24.28;55.22754;940.183;;;;
2021/08/09 12:07:27;;;;;;;1.2;1.1;;;;;;;24.75;55.4502;940.1638;;;;
2021/08/09 12:09:52;;;;;;;1.1;0.8;;;;;;;24.88;54.81738;940.1624;;;;
2021/08/09 12:12:17;;;;;;;1;0.9;;;;;;;24.66;55.74609;940.1805;;;;
2021/08/09 12:14:42;;;;;;;1.2;0.8;;;;;;;25.42;51.17578;940.1443;;;;
2021/08/09 12:17:07;;;;;;;1.2;0.6;;;;;;;25.24;51.5918;940.111;;;;
2021/08/09 12:19:32;;;;;;;1.2;1;;;;;;;24.99;55.63379;940.2076;;;;
2021/08/09 12:21:58;;;;;;;1.7;1.1;;;;;;;25.06;53.20996;940.1864;;;;
2021/08/09 12:24:24;;;;;;;1.1;1;;;;;;;25.77;51.52246;940.2288;;;;
2021/08/09 12:27:09;;;;;;;1.1;1;;;;;;;25.97;50.76465;940.241;;;;
2021/08/09 12:29:35;;;;;;;2.4;1.2;;;;;;;26.1;49.01758;940.1797;;;;
2021/08/09 12:32:00;;;;;;;1.5;1;;;;;;;25.8;50.7334;940.0914;;;;
2021/08/09 12:34:29;;;;;;;1.2;0.9;;;;;;;26.03;50.27637;940.1036;;;;
2021/08/09 12:36:54;;;;;;;1;0.9;;;;;;;25.8;50.47461;940.0984;;;;
2021/08/09 12:39:21;;;;;;;1.1;1;;;;;;;25.86;51.00098;940.1705;;;;
2021/08/09 12:41:46;;;;;;;1;1;;;;;;;25.68;52.20898;940.1181;;;;
2021/08/09 12:44:13;;;;;;;2.4;1.2;;;;;;;25.99;50.10547;940.1493;;;;
2021/08/09 12:46:38;;;;;;;1.2;1;;;;;;;26.29;49.33496;940.1731;;;;
2021/08/09 12:49:03;;;;;;;1.2;1;;;;;;;26.08;51.02539;940.1373;;;;
2021/08/09 12:51:29;;;;;;;1;0.9;;;;;;;25.81;49.44727;940.1635;;;;
2021/08/09 12:53:55;;;;;;;1;0.9;;;;;;;25.99;51.5957;940.13;;;;
2021/08/09 12:56:20;;;;;;;1.4;1.2;;;;;;;25.59;52.4707;940.1231;;;;
2021/08/09 13:02:21;;;;;;;1;1;;;;;;;24.93;53.97363;940.038;;;;
2021/08/09 13:04:47;;;;;;;1;0.9;;;;;;;25.37;53.90918;940.0139;;;;
2021/08/09 13:07:11;;;;;;;1.1;1;;;;;;;25.51;53.91504;940.0648;;;;
2021/08/09 13:09:37;;;;;;;1.4;1;;;;;;;25.66;55.44434;940.0756;;;;
2021/08/09 13:12:02;;;;;;;0.8;0.8;;;;;;;25.51;52.07227;940.1196;;;;
2021/08/09 13:14:28;;;;;;;1.1;1;;;;;;;25.23;54.42383;940.0853;;;;
2021/08/09 13:16:55;;;;;;;0.9;0.9;;;;;;;24.7;56.56445;940.1355;;;;
2021/08/09 13:19:20;;;;;;;1.5;1.1;;;;;;;24.61;56.84766;940.095;;;;
2021/08/09 13:21:46;;;;;;;1;1;;;;;;;24.55;56.25;940.106;;;;
2021/08/09 13:24:14;;;;;;;1.1;1;;;;;;;24.41;56.7041;940.1348;;;;
2021/08/09 13:26:39;;;;;;;1.3;1.2;;;;;;;24.71;55.00879;940.1043;;;;
2021/08/09 13:29:04;;;;;;;1.2;1.1;;;;;;;24.73;58.92773;940.0657;;;;
2021/08/09 13:31:29;;;;;;;1.2;1;;;;;;;25.05;57.69336;940.1168;;;;
2021/08/09 13:33:55;;;;;;;1.8;1.1;;;;;;;25.02;55.08203;940.0182;;;;
2021/08/09 13:38:46;;;;;;;0.9;0.9;;;;;;;24.44;56.9668;940.1836;;;;
2021/08/09 13:41:11;;;;;;;1.1;1;;;;;;;23.93;60.33887;940.1689;;;;
2021/08/09 13:43:37;;;;;;;1.2;1.1;;;;;;;24.4;55.56055;940.1043;;;;
2021/08/09 13:46:02;;;;;;;1.7;1.1;;;;;;;24.59;58.21289;940.1309;;;;
2021/08/09 13:48:30;;;;;;;1.4;1;;;;;;;24.64;57.06348;940.1545;;;;
2021/08/09 13:50:55;;;;;;;1.7;1.1;;;;;;;24.66;57.89063;940.1008;;;;
2021/08/09 13:53:21;;;;;;;2.2;1.3;;;;;;;24.55;56.83984;940.1295;;;;
2021/08/09 13:55:46;;;;;;;1.1;0.9;;;;;;;24.74;54.41113;940.1951;;;;
2021/08/09 13:58:12;;;;;;;1.2;1.1;;;;;;;24.96;52.68066;940.1344;;;;
2021/08/09 14:00:37;;;;;;;1.2;1.1;;;;;;;24.79;53.65039;940.0552;;;;
2021/08/09 14:03:04;;;;;;;1.4;1.2;;;;;;;24.51;56.00977;940.1246;;;;
2021/08/09 14:05:29;;;;;;;1.2;1;;;;;;;24.29;55.91113;940.1242;;;;
2021/08/09 14:07:55;;;;;;;1.5;1.1;;;;;;;24.05;57.04688;940.1472;;;;
2021/08/09 14:10:20;;;;;;;1.6;1.2;;;;;;;24.47;55.54492;940.1866;;;;
2021/08/09 14:12:47;;;;;;;1.9;1.2;;;;;;;24.48;56.56055;940.1412;;;;
2021/08/09 14:15:13;;;;;;;1.5;1.1;;;;;;;24.33;55.26855;940.0812;;;;
2021/08/09 14:17:40;;;;;;;1.7;1.1;;;;;;;24.39;57.71582;940.1861;;;;
2021/08/09 14:20:13;;;;;;;1.8;1.2;;;;;;;24.36;56.45117;940.1735;;;;
2021/08/09 14:22:38;;;;;;;1.6;1.2;;;;;;;24.27;55.66113;940.1738;;;;
2021/08/09 14:25:03;;;;;;;1.4;1.3;;;;;;;24.26;56.2373;940.2228;;;;
2021/08/09 14:27:30;;;;;;;1.7;1.3;;;;;;;24;54.7207;940.2328;;;;
2021/08/09 14:29:55;;;;;;;1.3;1.1;;;;;;;24.14;55.78711;940.36;;;;
2021/08/09 14:32:22;;;;;;;1;0.9;;;;;;;23.98;55.55469;940.3589;;;;
2021/08/09 14:34:47;;;;;;;1.3;1.2;;;;;;;24.03;55.01953;940.3507;;;;
2021/08/09 14:37:12;;;;;;;2.1;1.1;;;;;;;23.68;55.43555;940.27;;;;
2021/08/09 14:39:37;;;;;;;1.4;1.1;;;;;;;23.29;57.2207;940.2902;;;;